sensor_id;sensor_type;location;lat;lon;timestamp;P1;durP1;ratioP1;P2;durP2;ratioP2
4674;SDS011;2351;50.812;12.872;2023-02-22T00:01:35;8.93;;;4.40;;
4674;SDS011;2351;50.812;12.872;2023-02-22T00:04:16;6.90;;;4.30;;
4674;SDS011;2351;50.812;12.872;2023-02-22T00:06:51;7.73;;;4.23;;
4674;SDS011;2351;50.812;12.872;2023-02-22T00:09:23;11.63;;;5.23;;
4674;SDS011;2351;50.812;12.872;2023-02-22T00:11:54;10.60;;;4.67;;
4674;SDS011;2351;50.812;12.872;2023-02-22T00:14:27;8.40;;;5.10;;
4674;SDS011;2351;50.812;12.872;2023-02-22T00:16:59;8.23;;;4.80;;
4674;SDS011;2351;50.812;12.872;2023-02-22T00:19:31;9.60;;;4.60;;
4674;SDS011;2351;50.812;12.872;2023-02-22T00:22:04;7.53;;;4.27;;
4674;SDS011;2351;50.812;12.872;2023-02-22T00:24:36;8.07;;;4.77;;
4674;SDS011;2351;50.812;12.872;2023-02-22T00:27:07;7.90;;;3.87;;
4674;SDS011;2351;50.812;12.872;2023-02-22T00:29:43;8.40;;;4.67;;
4674;SDS011;2351;50.812;12.872;2023-02-22T00:32:15;11.73;;;5.33;;
4674;SDS011;2351;50.812;12.872;2023-02-22T00:34:49;10.30;;;5.00;;
4674;SDS011;2351;50.812;12.872;2023-02-22T00:37:23;7.73;;;4.17;;
4674;SDS011;2351;50.812;12.872;2023-02-22T00:39:55;8.63;;;4.30;;
4674;SDS011;2351;50.812;12.872;2023-02-22T00:42:27;9.37;;;5.13;;
4674;SDS011;2351;50.812;12.872;2023-02-22T00:44:58;8.83;;;4.30;;
4674;SDS011;2351;50.812;12.872;2023-02-22T00:47:30;9.37;;;5.00;;
4674;SDS011;2351;50.812;12.872;2023-02-22T00:50:02;9.80;;;5.70;;
4674;SDS011;2351;50.812;12.872;2023-02-22T00:52:36;10.10;;;5.07;;
4674;SDS011;2351;50.812;12.872;2023-02-22T00:55:08;8.50;;;4.60;;
4674;SDS011;2351;50.812;12.872;2023-02-22T00:57:45;9.90;;;5.03;;
4674;SDS011;2351;50.812;12.872;2023-02-22T01:00:18;8.60;;;4.47;;
4674;SDS011;2351;50.812;12.872;2023-02-22T01:02:52;12.30;;;4.70;;
4674;SDS011;2351;50.812;12.872;2023-02-22T01:05:26;12.37;;;5.30;;
4674;SDS011;2351;50.812;12.872;2023-02-22T01:08:00;11.07;;;5.20;;
4674;SDS011;2351;50.812;12.872;2023-02-22T01:10:36;7.13;;;4.97;;
4674;SDS011;2351;50.812;12.872;2023-02-22T01:13:09;14.77;;;5.97;;
4674;SDS011;2351;50.812;12.872;2023-02-22T01:15:41;10.37;;;5.93;;
4674;SDS011;2351;50.812;12.872;2023-02-22T01:18:14;16.50;;;6.13;;
4674;SDS011;2351;50.812;12.872;2023-02-22T01:20:46;14.07;;;6.40;;
4674;SDS011;2351;50.812;12.872;2023-02-22T01:23:19;11.07;;;5.67;;
4674;SDS011;2351;50.812;12.872;2023-02-22T01:25:51;11.97;;;6.87;;
4674;SDS011;2351;50.812;12.872;2023-02-22T01:28:23;17.53;;;5.90;;
4674;SDS011;2351;50.812;12.872;2023-02-22T01:30:55;11.17;;;6.07;;
4674;SDS011;2351;50.812;12.872;2023-02-22T01:33:26;19.73;;;5.83;;
4674;SDS011;2351;50.812;12.872;2023-02-22T01:35:58;12.23;;;6.57;;
4674;SDS011;2351;50.812;12.872;2023-02-22T01:38:31;13.50;;;6.77;;
4674;SDS011;2351;50.812;12.872;2023-02-22T01:41:03;11.77;;;5.90;;
4674;SDS011;2351;50.812;12.872;2023-02-22T01:43:35;11.30;;;5.97;;
4674;SDS011;2351;50.812;12.872;2023-02-22T01:46:18;15.90;;;5.90;;
4674;SDS011;2351;50.812;12.872;2023-02-22T01:48:52;12.00;;;5.57;;
4674;SDS011;2351;50.812;12.872;2023-02-22T01:51:28;14.53;;;6.47;;
4674;SDS011;2351;50.812;12.872;2023-02-22T01:54:08;13.40;;;6.40;;
4674;SDS011;2351;50.812;12.872;2023-02-22T01:56:45;14.60;;;6.60;;
4674;SDS011;2351;50.812;12.872;2023-02-22T01:59:24;10.27;;;5.50;;
4674;SDS011;2351;50.812;12.872;2023-02-22T02:01:58;20.60;;;6.67;;
4674;SDS011;2351;50.812;12.872;2023-02-22T02:04:31;20.17;;;8.20;;
4674;SDS011;2351;50.812;12.872;2023-02-22T02:07:16;14.13;;;6.60;;
4674;SDS011;2351;50.812;12.872;2023-02-22T02:09:53;16.40;;;7.10;;
4674;SDS011;2351;50.812;12.872;2023-02-22T02:12:29;12.37;;;6.13;;
4674;SDS011;2351;50.812;12.872;2023-02-22T02:15:15;16.27;;;7.80;;
4674;SDS011;2351;50.812;12.872;2023-02-22T02:17:52;16.00;;;6.37;;
4674;SDS011;2351;50.812;12.872;2023-02-22T02:20:27;17.53;;;7.23;;
4674;SDS011;2351;50.812;12.872;2023-02-22T02:23:07;17.03;;;7.37;;
4674;SDS011;2351;50.812;12.872;2023-02-22T02:26:20;15.03;;;6.57;;
4674;SDS011;2351;50.812;12.872;2023-02-22T02:29:34;12.10;;;6.50;;
4674;SDS011;2351;50.812;12.872;2023-02-22T02:32:39;13.53;;;6.03;;
4674;SDS011;2351;50.812;12.872;2023-02-22T02:35:25;18.23;;;6.90;;
4674;SDS011;2351;50.812;12.872;2023-02-22T02:38:04;17.00;;;7.23;;
4674;SDS011;2351;50.812;12.872;2023-02-22T02:40:42;20.80;;;9.50;;
4674;SDS011;2351;50.812;12.872;2023-02-22T02:43:20;17.27;;;6.83;;
4674;SDS011;2351;50.812;12.872;2023-02-22T02:46:00;16.03;;;7.13;;
4674;SDS011;2351;50.812;12.872;2023-02-22T02:48:37;12.70;;;6.50;;
4674;SDS011;2351;50.812;12.872;2023-02-22T02:51:14;13.53;;;6.87;;
4674;SDS011;2351;50.812;12.872;2023-02-22T02:53:46;16.23;;;7.37;;
4674;SDS011;2351;50.812;12.872;2023-02-22T02:56:21;17.03;;;6.57;;
4674;SDS011;2351;50.812;12.872;2023-02-22T02:58:54;14.83;;;6.07;;
4674;SDS011;2351;50.812;12.872;2023-02-22T03:01:34;11.60;;;5.90;;
4674;SDS011;2351;50.812;12.872;2023-02-22T03:04:24;14.57;;;6.30;;
4674;SDS011;2351;50.812;12.872;2023-02-22T03:07:09;13.73;;;6.30;;
4674;SDS011;2351;50.812;12.872;2023-02-22T03:10:02;15.83;;;6.83;;
4674;SDS011;2351;50.812;12.872;2023-02-22T03:12:48;16.20;;;6.47;;
4674;SDS011;2351;50.812;12.872;2023-02-22T03:15:32;12.90;;;6.10;;
4674;SDS011;2351;50.812;12.872;2023-02-22T03:18:12;15.03;;;6.70;;
4674;SDS011;2351;50.812;12.872;2023-02-22T03:20:54;15.70;;;6.23;;
4674;SDS011;2351;50.812;12.872;2023-02-22T03:23:31;15.80;;;7.30;;
4674;SDS011;2351;50.812;12.872;2023-02-22T03:26:08;14.30;;;6.27;;
4674;SDS011;2351;50.812;12.872;2023-02-22T03:28:43;16.00;;;6.13;;
4674;SDS011;2351;50.812;12.872;2023-02-22T03:31:21;12.93;;;5.80;;
4674;SDS011;2351;50.812;12.872;2023-02-22T03:33:56;16.60;;;7.17;;
4674;SDS011;2351;50.812;12.872;2023-02-22T03:36:34;15.40;;;7.17;;
4674;SDS011;2351;50.812;12.872;2023-02-22T03:39:11;19.93;;;7.50;;
4674;SDS011;2351;50.812;12.872;2023-02-22T03:41:46;11.33;;;6.50;;
4674;SDS011;2351;50.812;12.872;2023-02-22T03:44:21;13.70;;;6.77;;
4674;SDS011;2351;50.812;12.872;2023-02-22T03:46:56;13.73;;;6.60;;
4674;SDS011;2351;50.812;12.872;2023-02-22T03:49:31;12.47;;;6.83;;
4674;SDS011;2351;50.812;12.872;2023-02-22T03:52:07;10.50;;;5.93;;
4674;SDS011;2351;50.812;12.872;2023-02-22T03:54:41;14.13;;;7.50;;
4674;SDS011;2351;50.812;12.872;2023-02-22T03:57:14;15.83;;;6.53;;
4674;SDS011;2351;50.812;12.872;2023-02-22T03:59:53;19.87;;;6.93;;
4674;SDS011;2351;50.812;12.872;2023-02-22T04:02:25;17.27;;;8.07;;
4674;SDS011;2351;50.812;12.872;2023-02-22T04:04:56;19.90;;;7.47;;
4674;SDS011;2351;50.812;12.872;2023-02-22T04:07:30;13.97;;;6.53;;
4674;SDS011;2351;50.812;12.872;2023-02-22T04:10:02;11.53;;;5.23;;
4674;SDS011;2351;50.812;12.872;2023-02-22T04:12:37;17.00;;;7.50;;
4674;SDS011;2351;50.812;12.872;2023-02-22T04:15:11;16.63;;;6.73;;
4674;SDS011;2351;50.812;12.872;2023-02-22T04:17:45;13.60;;;6.20;;
4674;SDS011;2351;50.812;12.872;2023-02-22T04:20:17;17.27;;;7.33;;
4674;SDS011;2351;50.812;12.872;2023-02-22T04:22:55;14.07;;;6.33;;
4674;SDS011;2351;50.812;12.872;2023-02-22T04:25:27;13.20;;;6.60;;
4674;SDS011;2351;50.812;12.872;2023-02-22T04:27:59;14.77;;;6.70;;
4674;SDS011;2351;50.812;12.872;2023-02-22T04:30:31;11.83;;;5.37;;
4674;SDS011;2351;50.812;12.872;2023-02-22T04:33:02;17.03;;;7.50;;
4674;SDS011;2351;50.812;12.872;2023-02-22T04:35:34;15.67;;;6.60;;
4674;SDS011;2351;50.812;12.872;2023-02-22T04:38:07;13.63;;;7.00;;
4674;SDS011;2351;50.812;12.872;2023-02-22T04:40:39;11.87;;;6.53;;
4674;SDS011;2351;50.812;12.872;2023-02-22T04:43:11;16.60;;;6.83;;
4674;SDS011;2351;50.812;12.872;2023-02-22T04:45:43;18.17;;;7.03;;
4674;SDS011;2351;50.812;12.872;2023-02-22T04:48:14;18.77;;;7.10;;
4674;SDS011;2351;50.812;12.872;2023-02-22T04:50:46;12.80;;;6.30;;
4674;SDS011;2351;50.812;12.872;2023-02-22T04:53:21;13.47;;;6.87;;
4674;SDS011;2351;50.812;12.872;2023-02-22T04:55:53;18.00;;;7.70;;
4674;SDS011;2351;50.812;12.872;2023-02-22T04:58:25;14.03;;;6.87;;
4674;SDS011;2351;50.812;12.872;2023-02-22T05:00:56;12.67;;;7.10;;
4674;SDS011;2351;50.812;12.872;2023-02-22T05:03:28;13.50;;;7.40;;
4674;SDS011;2351;50.812;12.872;2023-02-22T05:06:00;22.07;;;6.20;;
4674;SDS011;2351;50.812;12.872;2023-02-22T05:08:33;18.43;;;7.80;;
4674;SDS011;2351;50.812;12.872;2023-02-22T05:11:05;18.07;;;7.50;;
4674;SDS011;2351;50.812;12.872;2023-02-22T05:13:37;16.90;;;7.27;;
4674;SDS011;2351;50.812;12.872;2023-02-22T05:16:09;13.80;;;7.03;;
4674;SDS011;2351;50.812;12.872;2023-02-22T05:18:41;15.63;;;7.20;;
4674;SDS011;2351;50.812;12.872;2023-02-22T05:21:12;15.20;;;6.83;;
4674;SDS011;2351;50.812;12.872;2023-02-22T05:23:46;13.83;;;6.67;;
4674;SDS011;2351;50.812;12.872;2023-02-22T05:26:17;12.67;;;6.43;;
4674;SDS011;2351;50.812;12.872;2023-02-22T05:28:49;18.67;;;7.13;;
4674;SDS011;2351;50.812;12.872;2023-02-22T05:31:21;13.30;;;7.50;;
4674;SDS011;2351;50.812;12.872;2023-02-22T05:33:52;16.90;;;7.40;;
4674;SDS011;2351;50.812;12.872;2023-02-22T05:36:24;16.60;;;7.77;;
4674;SDS011;2351;50.812;12.872;2023-02-22T05:38:58;20.57;;;8.07;;
4674;SDS011;2351;50.812;12.872;2023-02-22T05:41:30;23.83;;;8.00;;
4674;SDS011;2351;50.812;12.872;2023-02-22T05:44:02;15.23;;;8.03;;
4674;SDS011;2351;50.812;12.872;2023-02-22T05:46:34;19.77;;;9.17;;
4674;SDS011;2351;50.812;12.872;2023-02-22T05:49:05;14.47;;;7.60;;
4674;SDS011;2351;50.812;12.872;2023-02-22T05:51:37;18.80;;;7.90;;
4674;SDS011;2351;50.812;12.872;2023-02-22T05:54:10;23.33;;;7.83;;
4674;SDS011;2351;50.812;12.872;2023-02-22T05:56:42;17.23;;;8.53;;
4674;SDS011;2351;50.812;12.872;2023-02-22T05:59:13;21.67;;;8.97;;
4674;SDS011;2351;50.812;12.872;2023-02-22T06:01:45;20.83;;;9.17;;
4674;SDS011;2351;50.812;12.872;2023-02-22T06:04:17;15.00;;;6.77;;
4674;SDS011;2351;50.812;12.872;2023-02-22T06:06:49;22.83;;;7.40;;
4674;SDS011;2351;50.812;12.872;2023-02-22T06:09:22;17.53;;;8.20;;
4674;SDS011;2351;50.812;12.872;2023-02-22T06:11:54;20.47;;;10.07;;
4674;SDS011;2351;50.812;12.872;2023-02-22T06:14:25;15.73;;;7.60;;
4674;SDS011;2351;50.812;12.872;2023-02-22T06:16:57;19.57;;;7.80;;
4674;SDS011;2351;50.812;12.872;2023-02-22T06:19:29;16.60;;;8.47;;
4674;SDS011;2351;50.812;12.872;2023-02-22T06:22:01;20.40;;;8.30;;
4674;SDS011;2351;50.812;12.872;2023-02-22T06:24:35;19.77;;;7.27;;
4674;SDS011;2351;50.812;12.872;2023-02-22T06:27:09;13.40;;;6.53;;
4674;SDS011;2351;50.812;12.872;2023-02-22T06:29:43;14.37;;;7.03;;
4674;SDS011;2351;50.812;12.872;2023-02-22T06:32:15;17.00;;;7.37;;
4674;SDS011;2351;50.812;12.872;2023-02-22T06:34:47;14.43;;;6.93;;
4674;SDS011;2351;50.812;12.872;2023-02-22T06:37:18;13.23;;;7.70;;
4674;SDS011;2351;50.812;12.872;2023-02-22T06:39:52;17.90;;;8.17;;
4674;SDS011;2351;50.812;12.872;2023-02-22T06:42:23;18.53;;;7.67;;
4674;SDS011;2351;50.812;12.872;2023-02-22T06:44:55;19.20;;;8.70;;
4674;SDS011;2351;50.812;12.872;2023-02-22T06:47:27;15.70;;;8.10;;
4674;SDS011;2351;50.812;12.872;2023-02-22T06:49:59;15.03;;;7.60;;
4674;SDS011;2351;50.812;12.872;2023-02-22T06:52:30;23.27;;;9.60;;
4674;SDS011;2351;50.812;12.872;2023-02-22T06:55:04;14.17;;;6.47;;
4674;SDS011;2351;50.812;12.872;2023-02-22T06:57:36;15.50;;;8.00;;
4674;SDS011;2351;50.812;12.872;2023-02-22T07:00:08;17.60;;;8.00;;
4674;SDS011;2351;50.812;12.872;2023-02-22T07:02:41;16.83;;;8.10;;
4674;SDS011;2351;50.812;12.872;2023-02-22T07:05:14;20.30;;;8.40;;
4674;SDS011;2351;50.812;12.872;2023-02-22T07:07:47;16.80;;;8.70;;
4674;SDS011;2351;50.812;12.872;2023-02-22T07:10:23;20.73;;;8.20;;
4674;SDS011;2351;50.812;12.872;2023-02-22T07:12:56;17.13;;;7.23;;
4674;SDS011;2351;50.812;12.872;2023-02-22T07:15:28;20.13;;;7.80;;
4674;SDS011;2351;50.812;12.872;2023-02-22T07:18:03;16.27;;;8.93;;
4674;SDS011;2351;50.812;12.872;2023-02-22T07:20:35;13.47;;;7.10;;
4674;SDS011;2351;50.812;12.872;2023-02-22T07:23:06;16.70;;;7.03;;
4674;SDS011;2351;50.812;12.872;2023-02-22T07:25:40;19.07;;;7.10;;
4674;SDS011;2351;50.812;12.872;2023-02-22T07:28:12;15.40;;;6.50;;
4674;SDS011;2351;50.812;12.872;2023-02-22T07:30:43;18.23;;;7.27;;
4674;SDS011;2351;50.812;12.872;2023-02-22T07:33:15;18.43;;;6.27;;
4674;SDS011;2351;50.812;12.872;2023-02-22T07:35:47;14.33;;;7.30;;
4674;SDS011;2351;50.812;12.872;2023-02-22T07:38:20;15.17;;;7.70;;
4674;SDS011;2351;50.812;12.872;2023-02-22T07:40:53;15.97;;;7.10;;
4674;SDS011;2351;50.812;12.872;2023-02-22T07:43:27;19.30;;;8.57;;
4674;SDS011;2351;50.812;12.872;2023-02-22T07:46:00;20.20;;;7.10;;
4674;SDS011;2351;50.812;12.872;2023-02-22T07:48:32;19.10;;;7.90;;
4674;SDS011;2351;50.812;12.872;2023-02-22T07:51:04;19.10;;;8.60;;
4674;SDS011;2351;50.812;12.872;2023-02-22T07:53:36;19.83;;;7.10;;
4674;SDS011;2351;50.812;12.872;2023-02-22T07:56:09;18.03;;;8.30;;
4674;SDS011;2351;50.812;12.872;2023-02-22T07:58:41;15.50;;;7.47;;
4674;SDS011;2351;50.812;12.872;2023-02-22T08:01:13;17.03;;;7.33;;
4674;SDS011;2351;50.812;12.872;2023-02-22T08:03:44;16.40;;;7.47;;
4674;SDS011;2351;50.812;12.872;2023-02-22T08:06:16;12.77;;;6.47;;
4674;SDS011;2351;50.812;12.872;2023-02-22T08:08:50;12.27;;;7.30;;
4674;SDS011;2351;50.812;12.872;2023-02-22T08:11:23;16.80;;;7.27;;
4674;SDS011;2351;50.812;12.872;2023-02-22T08:13:55;17.83;;;7.67;;
4674;SDS011;2351;50.812;12.872;2023-02-22T08:16:27;11.80;;;5.97;;
4674;SDS011;2351;50.812;12.872;2023-02-22T08:18:58;14.20;;;6.50;;
4674;SDS011;2351;50.812;12.872;2023-02-22T08:21:30;11.13;;;6.20;;
4674;SDS011;2351;50.812;12.872;2023-02-22T08:24:02;10.90;;;6.33;;
4674;SDS011;2351;50.812;12.872;2023-02-22T08:26:35;17.37;;;7.63;;
4674;SDS011;2351;50.812;12.872;2023-02-22T08:29:07;18.00;;;8.13;;
4674;SDS011;2351;50.812;12.872;2023-02-22T08:31:39;13.17;;;6.50;;
4674;SDS011;2351;50.812;12.872;2023-02-22T08:34:11;14.30;;;7.27;;
4674;SDS011;2351;50.812;12.872;2023-02-22T08:36:42;15.30;;;7.33;;
4674;SDS011;2351;50.812;12.872;2023-02-22T08:39:14;21.83;;;7.70;;
4674;SDS011;2351;50.812;12.872;2023-02-22T08:41:47;15.10;;;6.37;;
4674;SDS011;2351;50.812;12.872;2023-02-22T08:44:19;18.83;;;6.77;;
4674;SDS011;2351;50.812;12.872;2023-02-22T08:46:53;12.87;;;7.33;;
4674;SDS011;2351;50.812;12.872;2023-02-22T08:49:25;11.13;;;6.10;;
4674;SDS011;2351;50.812;12.872;2023-02-22T08:51:57;14.43;;;6.50;;
4674;SDS011;2351;50.812;12.872;2023-02-22T08:54:28;13.03;;;6.37;;
4674;SDS011;2351;50.812;12.872;2023-02-22T08:57:01;11.10;;;6.60;;
4674;SDS011;2351;50.812;12.872;2023-02-22T08:59:33;12.50;;;5.60;;
4674;SDS011;2351;50.812;12.872;2023-02-22T09:02:07;11.40;;;5.57;;
4674;SDS011;2351;50.812;12.872;2023-02-22T09:04:45;10.03;;;5.53;;
4674;SDS011;2351;50.812;12.872;2023-02-22T09:07:17;10.90;;;5.90;;
4674;SDS011;2351;50.812;12.872;2023-02-22T09:09:48;14.13;;;5.63;;
4674;SDS011;2351;50.812;12.872;2023-02-22T09:12:22;10.70;;;5.93;;
4674;SDS011;2351;50.812;12.872;2023-02-22T09:14:53;13.60;;;6.10;;
4674;SDS011;2351;50.812;12.872;2023-02-22T09:17:25;10.23;;;5.20;;
4674;SDS011;2351;50.812;12.872;2023-02-22T09:19:57;12.77;;;6.13;;
4674;SDS011;2351;50.812;12.872;2023-02-22T09:22:28;11.27;;;5.57;;
4674;SDS011;2351;50.812;12.872;2023-02-22T09:25:00;8.00;;;5.60;;
4674;SDS011;2351;50.812;12.872;2023-02-22T09:27:33;8.87;;;5.00;;
4674;SDS011;2351;50.812;12.872;2023-02-22T09:30:05;8.77;;;4.77;;
4674;SDS011;2351;50.812;12.872;2023-02-22T09:32:40;6.60;;;4.70;;
4674;SDS011;2351;50.812;12.872;2023-02-22T09:35:12;11.00;;;4.87;;
4674;SDS011;2351;50.812;12.872;2023-02-22T09:37:44;7.37;;;4.50;;
4674;SDS011;2351;50.812;12.872;2023-02-22T09:40:16;9.30;;;4.57;;
4674;SDS011;2351;50.812;12.872;2023-02-22T09:42:58;6.73;;;4.20;;
4674;SDS011;2351;50.812;12.872;2023-02-22T09:45:37;7.83;;;4.30;;
4674;SDS011;2351;50.812;12.872;2023-02-22T09:48:17;7.43;;;4.20;;
4674;SDS011;2351;50.812;12.872;2023-02-22T09:50:50;10.60;;;5.97;;
4674;SDS011;2351;50.812;12.872;2023-02-22T09:53:25;6.87;;;4.03;;
4674;SDS011;2351;50.812;12.872;2023-02-22T09:56:05;14.50;;;7.10;;
4674;SDS011;2351;50.812;12.872;2023-02-22T09:58:42;6.53;;;4.40;;
4674;SDS011;2351;50.812;12.872;2023-02-22T10:01:18;6.23;;;3.80;;
4674;SDS011;2351;50.812;12.872;2023-02-22T10:04:00;9.07;;;4.47;;
4674;SDS011;2351;50.812;12.872;2023-02-22T10:06:35;8.57;;;4.90;;
4674;SDS011;2351;50.812;12.872;2023-02-22T10:09:09;7.20;;;4.30;;
4674;SDS011;2351;50.812;12.872;2023-02-22T10:11:43;4.50;;;3.50;;
4674;SDS011;2351;50.812;12.872;2023-02-22T10:14:33;9.77;;;4.57;;
4674;SDS011;2351;50.812;12.872;2023-02-22T10:17:18;7.93;;;5.03;;
4674;SDS011;2351;50.812;12.872;2023-02-22T10:20:02;14.23;;;4.60;;
4674;SDS011;2351;50.812;12.872;2023-02-22T10:22:47;6.57;;;3.93;;
4674;SDS011;2351;50.812;12.872;2023-02-22T10:25:33;4.77;;;3.50;;
4674;SDS011;2351;50.812;12.872;2023-02-22T10:28:09;7.20;;;3.73;;
4674;SDS011;2351;50.812;12.872;2023-02-22T10:30:50;5.80;;;3.77;;
4674;SDS011;2351;50.812;12.872;2023-02-22T10:33:26;7.80;;;3.83;;
4674;SDS011;2351;50.812;12.872;2023-02-22T10:36:02;6.20;;;4.00;;
4674;SDS011;2351;50.812;12.872;2023-02-22T10:38:35;6.07;;;3.57;;
4674;SDS011;2351;50.812;12.872;2023-02-22T10:41:14;8.13;;;3.37;;
4674;SDS011;2351;50.812;12.872;2023-02-22T10:43:52;4.80;;;3.50;;
4674;SDS011;2351;50.812;12.872;2023-02-22T10:46:26;5.33;;;3.37;;
4674;SDS011;2351;50.812;12.872;2023-02-22T10:49:00;6.57;;;3.70;;
4674;SDS011;2351;50.812;12.872;2023-02-22T10:51:36;5.60;;;3.67;;
4674;SDS011;2351;50.812;12.872;2023-02-22T10:54:17;5.97;;;3.70;;
4674;SDS011;2351;50.812;12.872;2023-02-22T10:56:55;5.60;;;3.33;;
4674;SDS011;2351;50.812;12.872;2023-02-22T10:59:30;5.17;;;3.53;;
4674;SDS011;2351;50.812;12.872;2023-02-22T11:02:12;4.20;;;3.03;;
4674;SDS011;2351;50.812;12.872;2023-02-22T11:04:49;11.73;;;4.30;;
4674;SDS011;2351;50.812;12.872;2023-02-22T11:07:23;10.53;;;3.63;;
4674;SDS011;2351;50.812;12.872;2023-02-22T11:09:57;6.70;;;4.10;;
4674;SDS011;2351;50.812;12.872;2023-02-22T11:12:30;4.50;;;3.40;;
4674;SDS011;2351;50.812;12.872;2023-02-22T11:15:22;9.17;;;3.27;;
4674;SDS011;2351;50.812;12.872;2023-02-22T11:17:59;5.67;;;3.80;;
4674;SDS011;2351;50.812;12.872;2023-02-22T11:20:32;4.70;;;2.90;;
4674;SDS011;2351;50.812;12.872;2023-02-22T11:23:07;4.60;;;3.40;;
4674;SDS011;2351;50.812;12.872;2023-02-22T11:25:41;5.43;;;3.30;;
4674;SDS011;2351;50.812;12.872;2023-02-22T11:28:15;3.70;;;2.70;;
4674;SDS011;2351;50.812;12.872;2023-02-22T11:31:08;4.60;;;2.90;;
4674;SDS011;2351;50.812;12.872;2023-02-22T11:33:52;3.27;;;2.20;;
4674;SDS011;2351;50.812;12.872;2023-02-22T11:36:31;5.50;;;3.20;;
4674;SDS011;2351;50.812;12.872;2023-02-22T11:39:20;3.93;;;2.97;;
4674;SDS011;2351;50.812;12.872;2023-02-22T11:41:54;5.73;;;3.33;;
4674;SDS011;2351;50.812;12.872;2023-02-22T11:44:27;3.57;;;2.90;;
4674;SDS011;2351;50.812;12.872;2023-02-22T11:47:00;2.90;;;2.50;;
4674;SDS011;2351;50.812;12.872;2023-02-22T11:49:38;4.27;;;3.20;;
4674;SDS011;2351;50.812;12.872;2023-02-22T11:52:15;5.00;;;3.30;;
4674;SDS011;2351;50.812;12.872;2023-02-22T11:54:56;5.07;;;3.33;;
4674;SDS011;2351;50.812;12.872;2023-02-22T11:57:41;3.03;;;2.73;;
4674;SDS011;2351;50.812;12.872;2023-02-22T12:00:22;9.97;;;3.80;;
4674;SDS011;2351;50.812;12.872;2023-02-22T12:03:07;3.57;;;3.03;;
4674;SDS011;2351;50.812;12.872;2023-02-22T12:08:52;3.60;;;3.10;;
4674;SDS011;2351;50.812;12.872;2023-02-22T12:11:38;5.30;;;3.00;;
4674;SDS011;2351;50.812;12.872;2023-02-22T12:14:23;5.17;;;3.80;;
4674;SDS011;2351;50.812;12.872;2023-02-22T12:17:09;5.63;;;3.00;;
4674;SDS011;2351;50.812;12.872;2023-02-22T12:19:53;6.07;;;3.20;;
4674;SDS011;2351;50.812;12.872;2023-02-22T12:22:33;5.70;;;3.40;;
4674;SDS011;2351;50.812;12.872;2023-02-22T12:25:15;5.00;;;2.73;;
4674;SDS011;2351;50.812;12.872;2023-02-22T12:27:51;4.73;;;3.13;;
4674;SDS011;2351;50.812;12.872;2023-02-22T12:30:26;3.57;;;3.03;;
4674;SDS011;2351;50.812;12.872;2023-02-22T12:33:02;5.17;;;3.47;;
4674;SDS011;2351;50.812;12.872;2023-02-22T12:35:37;5.60;;;3.40;;
4674;SDS011;2351;50.812;12.872;2023-02-22T12:38:17;4.50;;;2.90;;
4674;SDS011;2351;50.812;12.872;2023-02-22T12:40:53;4.40;;;3.00;;
4674;SDS011;2351;50.812;12.872;2023-02-22T12:43:33;6.80;;;3.07;;
4674;SDS011;2351;50.812;12.872;2023-02-22T12:46:11;5.23;;;3.40;;
4674;SDS011;2351;50.812;12.872;2023-02-22T12:48:48;8.10;;;3.30;;
4674;SDS011;2351;50.812;12.872;2023-02-22T12:51:25;4.50;;;3.03;;
4674;SDS011;2351;50.812;12.872;2023-02-22T12:54:07;4.00;;;2.70;;
4674;SDS011;2351;50.812;12.872;2023-02-22T12:56:44;3.53;;;2.60;;
4674;SDS011;2351;50.812;12.872;2023-02-22T12:59:24;3.50;;;2.80;;
4674;SDS011;2351;50.812;12.872;2023-02-22T13:02:02;6.30;;;3.50;;
4674;SDS011;2351;50.812;12.872;2023-02-22T13:04:42;3.47;;;2.90;;
4674;SDS011;2351;50.812;12.872;2023-02-22T13:07:17;3.93;;;2.90;;
4674;SDS011;2351;50.812;12.872;2023-02-22T13:13:01;3.37;;;2.43;;
4674;SDS011;2351;50.812;12.872;2023-02-22T13:15:40;4.57;;;3.37;;
4674;SDS011;2351;50.812;12.872;2023-02-22T13:18:21;5.10;;;3.50;;
4674;SDS011;2351;50.812;12.872;2023-02-22T13:20:59;4.70;;;3.03;;
4674;SDS011;2351;50.812;12.872;2023-02-22T13:23:38;5.23;;;2.83;;
4674;SDS011;2351;50.812;12.872;2023-02-22T13:26:20;5.00;;;3.13;;
4674;SDS011;2351;50.812;12.872;2023-02-22T13:28:56;3.43;;;2.70;;
4674;SDS011;2351;50.812;12.872;2023-02-22T13:31:44;3.83;;;2.77;;
4674;SDS011;2351;50.812;12.872;2023-02-22T13:34:30;8.00;;;3.07;;
4674;SDS011;2351;50.812;12.872;2023-02-22T13:37:22;3.70;;;2.87;;
4674;SDS011;2351;50.812;12.872;2023-02-22T13:40:24;6.50;;;2.83;;
4674;SDS011;2351;50.812;12.872;2023-02-22T13:43:27;6.77;;;3.17;;
4674;SDS011;2351;50.812;12.872;2023-02-22T13:49:14;4.07;;;3.10;;
4674;SDS011;2351;50.812;12.872;2023-02-22T13:51:59;3.87;;;3.00;;
4674;SDS011;2351;50.812;12.872;2023-02-22T13:54:35;3.93;;;2.40;;
4674;SDS011;2351;50.812;12.872;2023-02-22T13:57:18;5.57;;;3.07;;
4674;SDS011;2351;50.812;12.872;2023-02-22T14:03:27;1.97;;;1.70;;
4674;SDS011;2351;50.812;12.872;2023-02-22T14:06:06;3.23;;;2.03;;
4674;SDS011;2351;50.812;12.872;2023-02-22T14:08:45;2.50;;;2.30;;
4674;SDS011;2351;50.812;12.872;2023-02-22T14:14:26;4.10;;;2.37;;
4674;SDS011;2351;50.812;12.872;2023-02-22T14:17:21;2.73;;;1.83;;
4674;SDS011;2351;50.812;12.872;2023-02-22T14:20:05;2.60;;;1.93;;
4674;SDS011;2351;50.812;12.872;2023-02-22T14:22:50;4.93;;;2.20;;
4674;SDS011;2351;50.812;12.872;2023-02-22T14:25:36;2.27;;;1.97;;
4674;SDS011;2351;50.812;12.872;2023-02-22T14:31:04;2.30;;;2.07;;
4674;SDS011;2351;50.812;12.872;2023-02-22T14:33:54;2.40;;;1.83;;
4674;SDS011;2351;50.812;12.872;2023-02-22T14:36:32;3.50;;;2.37;;
4674;SDS011;2351;50.812;12.872;2023-02-22T14:39:13;2.53;;;2.17;;
4674;SDS011;2351;50.812;12.872;2023-02-22T14:41:50;3.77;;;1.93;;
4674;SDS011;2351;50.812;12.872;2023-02-22T14:44:27;2.30;;;1.63;;
4674;SDS011;2351;50.812;12.872;2023-02-22T14:47:03;2.60;;;1.43;;
4674;SDS011;2351;50.812;12.872;2023-02-22T14:49:39;1.90;;;1.73;;
4674;SDS011;2351;50.812;12.872;2023-02-22T14:52:18;2.57;;;2.23;;
4674;SDS011;2351;50.812;12.872;2023-02-22T14:54:55;2.00;;;1.77;;
4674;SDS011;2351;50.812;12.872;2023-02-22T14:57:39;2.23;;;1.50;;
4674;SDS011;2351;50.812;12.872;2023-02-22T15:00:18;3.97;;;2.10;;
4674;SDS011;2351;50.812;12.872;2023-02-22T15:02:59;1.87;;;1.70;;
4674;SDS011;2351;50.812;12.872;2023-02-22T15:05:35;2.00;;;1.70;;
4674;SDS011;2351;50.812;12.872;2023-02-22T15:08:08;1.80;;;1.50;;
4674;SDS011;2351;50.812;12.872;2023-02-22T15:10:43;1.97;;;1.80;;
4674;SDS011;2351;50.812;12.872;2023-02-22T15:13:17;1.83;;;1.70;;
4674;SDS011;2351;50.812;12.872;2023-02-22T15:15:53;2.00;;;1.80;;
4674;SDS011;2351;50.812;12.872;2023-02-22T15:18:27;2.00;;;1.80;;
4674;SDS011;2351;50.812;12.872;2023-02-22T15:21:06;2.50;;;1.60;;
4674;SDS011;2351;50.812;12.872;2023-02-22T15:23:42;2.90;;;1.50;;
4674;SDS011;2351;50.812;12.872;2023-02-22T15:26:18;1.63;;;1.53;;
4674;SDS011;2351;50.812;12.872;2023-02-22T15:28:53;2.90;;;2.00;;
4674;SDS011;2351;50.812;12.872;2023-02-22T15:31:28;10.17;;;6.80;;
4674;SDS011;2351;50.812;12.872;2023-02-22T15:34:08;6.20;;;4.10;;
4674;SDS011;2351;50.812;12.872;2023-02-22T15:36:50;3.47;;;2.50;;
4674;SDS011;2351;50.812;12.872;2023-02-22T15:39:25;7.70;;;4.03;;
4674;SDS011;2351;50.812;12.872;2023-02-22T15:42:02;3.30;;;3.00;;
4674;SDS011;2351;50.812;12.872;2023-02-22T15:44:37;4.63;;;2.60;;
4674;SDS011;2351;50.812;12.872;2023-02-22T15:47:11;3.30;;;1.97;;
4674;SDS011;2351;50.812;12.872;2023-02-22T15:52:55;7.40;;;4.20;;
4674;SDS011;2351;50.812;12.872;2023-02-22T15:55:29;7.30;;;3.83;;
4674;SDS011;2351;50.812;12.872;2023-02-22T15:58:06;6.60;;;2.97;;
4674;SDS011;2351;50.812;12.872;2023-02-22T16:00:40;4.40;;;3.13;;
4674;SDS011;2351;50.812;12.872;2023-02-22T16:03:14;7.53;;;3.70;;
4674;SDS011;2351;50.812;12.872;2023-02-22T16:05:52;6.20;;;3.13;;
4674;SDS011;2351;50.812;12.872;2023-02-22T16:08:34;6.50;;;3.70;;